createdAt,value
2023-01-11T00:00:23.810Z,1659.00
2023-01-11T00:01:23.790Z,1641.00
2023-01-11T00:02:23.875Z,1630.00
2023-01-11T00:03:23.770Z,1630.00
2023-01-11T00:04:23.778Z,1627.00
2023-01-11T08:47:38.036Z,587.00
2023-01-11T08:48:38.033Z,600.00
2023-01-11T08:49:39.013Z,643.00
2023-01-11T08:50:38.224Z,660.00
2023-01-11T08:52:38.123Z,654.00
2023-01-11T08:54:37.997Z,640.00
2023-01-11T08:55:37.963Z,641.00
2023-01-11T08:56:37.954Z,640.00
2023-01-11T08:57:38.167Z,638.00
2023-01-11T08:58:37.928Z,638.00
2023-01-11T08:59:37.923Z,639.00
2023-01-11T09:00:37.912Z,646.00
2023-01-11T09:01:38.211Z,643.00
2023-01-11T09:02:38.002Z,646.00
2023-01-11T09:03:37.885Z,641.00
2023-01-11T09:04:37.876Z,644.00
2023-01-11T09:05:38.126Z,644.00
2023-01-11T09:06:37.857Z,626.00
2023-01-11T09:07:37.882Z,588.00
2023-01-11T09:08:38.125Z,563.00
2023-01-11T09:09:37.832Z,2518.00
2023-01-11T09:11:37.867Z,762.00
2023-01-11T09:12:37.818Z,807.00
2023-01-11T09:13:38.143Z,761.00
2023-01-11T09:14:37.785Z,688.00
2023-01-11T09:15:37.793Z,651.00
2023-01-11T09:16:37.774Z,700.00
2023-01-11T09:17:37.788Z,650.00
2023-01-11T09:18:37.741Z,625.00
2023-01-11T09:19:37.772Z,642.00
2023-01-11T09:20:37.721Z,588.00
2023-01-11T09:21:37.713Z,589.00
2023-01-11T09:22:37.703Z,574.00
2023-01-11T09:23:37.697Z,571.00
2023-01-11T09:24:37.675Z,592.00
2023-01-11T09:25:37.675Z,567.00
2023-01-11T09:26:37.791Z,558.00
2023-01-11T09:27:37.654Z,559.00
2023-01-11T09:28:37.644Z,553.00
2023-01-11T09:29:37.903Z,554.00
2023-01-11T09:30:37.624Z,520.00
2023-01-11T09:31:37.707Z,540.00
2023-01-11T09:32:37.658Z,518.00
2023-01-11T09:33:37.593Z,523.00
2023-01-11T09:34:37.616Z,523.00
2023-01-11T09:35:37.578Z,509.00
2023-01-11T09:36:37.683Z,517.00
2023-01-11T09:37:37.642Z,521.00
2023-01-11T09:38:37.552Z,498.00
2023-01-11T09:39:37.539Z,538.00
2023-01-11T09:40:37.531Z,553.00
2023-01-11T09:41:37.533Z,546.00
2023-01-11T09:42:37.808Z,546.00
2023-01-11T09:43:37.503Z,552.00
2023-01-11T09:44:37.512Z,552.00
2023-01-11T09:45:37.490Z,560.00
2023-01-11T09:46:37.665Z,566.00
2023-01-11T09:47:37.470Z,566.00
2023-01-11T09:48:37.457Z,570.00
2023-01-11T09:49:37.487Z,571.00
2023-01-11T09:52:37.647Z,583.00
2023-01-11T09:54:37.650Z,590.00
2023-01-11T09:58:37.455Z,594.00
2023-01-11T10:05:37.676Z,601.00
2023-01-11T10:18:33.752Z,619.00
2023-01-11T10:19:41.283Z,619.00
2023-01-11T10:22:37.162Z,613.00
2023-01-11T10:27:37.308Z,616.00
2023-01-11T10:31:37.284Z,617.00
2023-01-11T10:32:37.175Z,619.00
2023-01-11T10:40:38.770Z,625.00
2023-01-11T10:45:37.342Z,629.00
2023-01-11T10:48:36.895Z,962.00
2023-01-11T11:17:36.695Z,706.00
2023-01-11T11:22:36.692Z,715.00
2023-01-11T12:20:36.052Z,492.00
2023-01-11T12:58:35.726Z,607.00
2023-01-11T15:57:34.051Z,639.00
2023-01-11T16:08:33.939Z,627.00
2023-01-11T16:31:33.768Z,645.00
2023-01-11T18:23:32.652Z,963.00
2023-01-11T20:15:31.590Z,1067.00
2023-01-11T20:16:31.585Z,1074.00
2023-01-11T20:17:31.574Z,1078.00
2023-01-11T20:18:31.555Z,1075.00
2023-01-11T20:19:31.547Z,1078.00
2023-01-11T20:20:31.535Z,1072.00
2023-01-11T20:21:31.561Z,1077.00
2023-01-11T20:22:31.602Z,1080.00
2023-01-11T20:23:31.509Z,1082.00
2023-01-11T20:24:31.502Z,1083.00
2023-01-11T20:25:31.491Z,1086.00
2023-01-11T20:26:31.486Z,1081.00
2023-01-11T20:27:31.488Z,1077.00
2023-01-11T20:28:31.464Z,1100.00
2023-01-11T20:29:31.452Z,1093.00
2023-01-11T20:30:31.448Z,1106.00
2023-01-11T20:31:31.557Z,1079.00
2023-01-11T20:32:41.543Z,1090.00
2023-01-11T20:33:31.415Z,1091.00
2023-01-11T20:34:31.406Z,1094.00
2023-01-11T20:35:31.396Z,1096.00
2023-01-11T20:36:31.385Z,1085.00
2023-01-11T20:37:31.377Z,1086.00
2023-01-11T20:38:31.423Z,1088.00
2023-01-11T20:39:31.361Z,1079.00
2023-01-11T20:40:31.349Z,1094.00
2023-01-11T20:41:31.339Z,1081.00
2023-01-11T20:42:31.336Z,1107.00
2023-01-11T20:43:31.320Z,1090.00
2023-01-11T20:44:31.312Z,1096.00
2023-01-11T20:45:31.300Z,1096.00
2023-01-11T20:46:31.550Z,1104.00
2023-01-11T20:47:31.301Z,1097.00
2023-01-11T20:48:31.275Z,1094.00
2023-01-11T20:49:31.263Z,1109.00
2023-01-11T20:50:31.254Z,1102.00
2023-01-11T20:51:31.244Z,1088.00
2023-01-11T20:52:31.239Z,1103.00
2023-01-11T20:53:31.231Z,1086.00
2023-01-11T20:54:31.245Z,1086.00
2023-01-11T20:55:31.205Z,1088.00
2023-01-11T20:56:31.193Z,1100.00
2023-01-11T20:57:31.189Z,1078.00
2023-01-11T20:58:31.181Z,1135.00
2023-01-11T20:59:31.165Z,1120.00
2023-01-11T21:00:31.158Z,1110.00
2023-01-11T21:01:31.173Z,1112.00
2023-01-11T21:02:31.152Z,1111.00
2023-01-11T21:03:31.129Z,1101.00
2023-01-11T21:04:31.125Z,1117.00
2023-01-11T21:05:31.111Z,1099.00
2023-01-11T21:06:31.102Z,1084.00
2023-01-11T21:07:31.110Z,1077.00
2023-01-11T21:08:31.083Z,1094.00
2023-01-11T21:09:31.072Z,1069.00
2023-01-11T21:10:31.093Z,1072.00
2023-01-11T21:11:31.052Z,1073.00
2023-01-11T21:12:31.060Z,1077.00
2023-01-11T21:13:31.032Z,1063.00
2023-01-11T21:14:31.037Z,1074.00
2023-01-11T21:15:31.022Z,1084.00
2023-01-11T21:16:31.005Z,1086.00
2023-01-11T21:17:30.996Z,1096.00
2023-01-11T21:18:30.986Z,1103.00
2023-01-11T21:19:30.979Z,1103.00
2023-01-11T21:20:30.968Z,1088.00
2023-01-11T21:21:30.957Z,1092.00
2023-01-11T21:22:30.954Z,1100.00
2023-01-11T21:23:30.936Z,1110.00
2023-01-11T21:24:30.937Z,1113.00
2023-01-11T21:25:30.920Z,1121.00
2023-01-11T21:26:30.946Z,1122.00
2023-01-11T21:27:30.905Z,1124.00
2023-01-11T21:28:30.896Z,1120.00
2023-01-11T21:29:30.892Z,1132.00
2023-01-11T21:30:30.874Z,1132.00
2023-01-11T21:31:30.926Z,1127.00
2023-01-11T21:32:30.852Z,1134.00
2023-01-11T21:33:30.845Z,1140.00
2023-01-11T21:34:30.835Z,1120.00
2023-01-11T21:35:30.828Z,1129.00
2023-01-11T21:36:30.812Z,1134.00
2023-01-11T21:37:30.817Z,1124.00
2023-01-11T21:38:30.828Z,1141.00
2023-01-11T21:39:30.816Z,1131.00
2023-01-11T21:40:30.776Z,1135.00
2023-01-11T21:41:30.783Z,1137.00
2023-01-11T21:42:30.783Z,1139.00
2023-01-11T21:43:30.749Z,1126.00
2023-01-11T21:44:30.738Z,1142.00
2023-01-11T21:45:30.727Z,1145.00
2023-01-11T21:46:30.791Z,1152.00
2023-01-11T21:47:30.712Z,1158.00
2023-01-11T21:48:30.708Z,1155.00
2023-01-11T21:49:30.701Z,1163.00
2023-01-11T21:50:30.685Z,1147.00
2023-01-11T21:51:30.672Z,1157.00
2023-01-11T21:52:30.661Z,1167.00
2023-01-11T21:53:30.657Z,1162.00
2023-01-11T21:54:30.641Z,1158.00
2023-01-11T21:55:30.632Z,1171.00
2023-01-11T21:56:30.626Z,1171.00
2023-01-11T21:57:30.613Z,1157.00
2023-01-11T21:58:30.635Z,1166.00
2023-01-11T21:59:30.616Z,1172.00
2023-01-11T22:00:30.654Z,1173.00
2023-01-11T22:01:30.577Z,1172.00
2023-01-11T22:02:30.564Z,1173.00
2023-01-11T22:03:30.579Z,1155.00
2023-01-11T22:04:30.551Z,1172.00
2023-01-11T22:05:30.538Z,1166.00
2023-01-11T22:06:30.530Z,1161.00
2023-01-11T22:07:30.520Z,1160.00
2023-01-11T22:08:30.515Z,1164.00
2023-01-11T22:09:30.509Z,1156.00
2023-01-11T22:10:30.492Z,1159.00
2023-01-11T22:11:30.483Z,1153.00
2023-01-11T22:12:30.474Z,1170.00
2023-01-11T22:13:30.474Z,1148.00
2023-01-11T22:14:30.510Z,1167.00
2023-01-11T22:15:30.455Z,1160.00
2023-01-11T22:16:30.528Z,1150.00
2023-01-11T22:17:30.428Z,1160.00
2023-01-11T22:18:30.434Z,1176.00
2023-01-11T22:19:30.413Z,1162.00
2023-01-11T22:20:30.404Z,1170.00
2023-01-11T22:21:30.397Z,1179.00
2023-01-11T22:22:30.386Z,1168.00
2023-01-11T22:23:30.375Z,1168.00
2023-01-11T22:24:30.365Z,1167.00
2023-01-11T22:25:30.348Z,1166.00
2023-01-11T22:26:30.344Z,1169.00
2023-01-11T22:27:30.338Z,1167.00
2023-01-11T22:28:30.328Z,1169.00
2023-01-11T22:29:30.324Z,1174.00
2023-01-11T22:30:30.376Z,1187.00
2023-01-11T22:31:30.374Z,1167.00
2023-01-11T22:32:30.290Z,1169.00
2023-01-11T22:33:30.283Z,1162.00
2023-01-11T22:34:30.266Z,1177.00
2023-01-11T22:35:30.257Z,1173.00
2023-01-11T22:36:30.264Z,1162.00
2023-01-11T22:37:30.253Z,1171.00
2023-01-11T22:38:30.239Z,1179.00
2023-01-11T22:39:30.223Z,1157.00
2023-01-11T22:40:30.211Z,1167.00
2023-01-11T22:41:30.209Z,1165.00
2023-01-11T22:42:30.196Z,1147.00
2023-01-11T22:43:30.184Z,1163.00
2023-01-11T22:44:30.176Z,1157.00
2023-01-11T22:45:30.240Z,1162.00
2023-01-11T22:46:30.174Z,1177.00
2023-01-11T22:47:30.145Z,1173.00
2023-01-11T22:48:30.151Z,1185.00
2023-01-11T22:49:30.123Z,1186.00
2023-01-11T22:50:30.115Z,1184.00
2023-01-11T22:51:30.126Z,1184.00
2023-01-11T22:52:30.093Z,1182.00
2023-01-11T22:53:30.086Z,1172.00
2023-01-11T22:54:30.080Z,1179.00
2023-01-11T22:55:30.067Z,1184.00
2023-01-11T22:56:30.079Z,1182.00
2023-01-11T22:57:30.053Z,1178.00
2023-01-11T22:58:30.046Z,1168.00
2023-01-11T22:59:30.035Z,1169.00
2023-01-11T23:00:30.022Z,1185.00
2023-01-11T23:01:30.016Z,1171.00
2023-01-11T23:02:30.089Z,1177.00
2023-01-11T23:03:30.057Z,1170.00
2023-01-11T23:04:29.987Z,1163.00
2023-01-11T23:05:29.969Z,1176.00
2023-01-11T23:06:29.959Z,1181.00
2023-01-11T23:07:29.961Z,1174.00
2023-01-11T23:08:29.953Z,1175.00
2023-01-11T23:09:29.960Z,1167.00
2023-01-11T23:10:29.924Z,1180.00
2023-01-11T23:11:29.915Z,1173.00
2023-01-11T23:12:29.905Z,1174.00
2023-01-11T23:13:29.895Z,1174.00
2023-01-11T23:14:29.903Z,1184.00
2023-01-11T23:15:29.882Z,1180.00
2023-01-11T23:16:29.933Z,1187.00
2023-01-11T23:17:29.858Z,1180.00
2023-01-11T23:18:29.880Z,1180.00
2023-01-11T23:19:29.840Z,1193.00
2023-01-11T23:20:29.830Z,1190.00
2023-01-11T23:21:29.835Z,1196.00
2023-01-11T23:22:29.820Z,1186.00
2023-01-11T23:23:29.798Z,1192.00
2023-01-11T23:24:29.813Z,1192.00
2023-01-11T23:25:29.798Z,1198.00
2023-01-11T23:26:29.781Z,1194.00
2023-01-11T23:27:29.765Z,1190.00
2023-01-11T23:28:29.767Z,1200.00
2023-01-11T23:29:29.741Z,1207.00
2023-01-11T23:30:29.734Z,1204.00
2023-01-11T23:31:29.735Z,1201.00
2023-01-11T23:32:29.718Z,1194.00
2023-01-11T23:33:29.708Z,1197.00
2023-01-11T23:34:29.730Z,1194.00
2023-01-11T23:35:29.693Z,1198.00
2023-01-11T23:36:29.678Z,1202.00
2023-01-11T23:37:29.669Z,1195.00
2023-01-11T23:38:29.659Z,1197.00
2023-01-11T23:40:29.651Z,1203.00
2023-01-11T23:41:29.668Z,1189.00
2023-01-11T23:42:29.621Z,1212.00
2023-01-11T23:43:29.619Z,1201.00
2023-01-11T23:44:29.637Z,1197.00
2023-01-11T23:45:29.685Z,1207.00
2023-01-11T23:46:29.588Z,1199.00
2023-01-11T23:47:29.604Z,1205.00
2023-01-11T23:48:29.562Z,1196.00
2023-01-11T23:49:29.584Z,1185.00
2023-01-11T23:50:29.580Z,1195.00
2023-01-11T23:51:29.540Z,1195.00
2023-01-11T23:52:29.540Z,1190.00
2023-01-11T23:53:29.612Z,1216.00
2023-01-11T23:54:29.516Z,1197.00
2023-01-11T23:55:29.499Z,1206.00
2023-01-11T23:56:29.486Z,1200.00
2023-01-11T23:57:29.494Z,1206.00
2023-01-11T23:58:29.468Z,1206.00
2023-01-11T23:59:29.461Z,1210.00
